sensor_id;sensor_type;location;lat;lon;timestamp;temperature;humidity
75170;SHT31;63749;49.186;9.222;2023-04-12T00:02:12;9.45;66.42
75170;SHT31;63749;49.186;9.222;2023-04-12T00:04:38;9.51;66.10
75170;SHT31;63749;49.186;9.222;2023-04-12T00:07:04;9.52;66.23
75170;SHT31;63749;49.186;9.222;2023-04-12T00:09:30;9.54;65.83
75170;SHT31;63749;49.186;9.222;2023-04-12T00:11:58;9.61;68.50
75170;SHT31;63749;49.186;9.222;2023-04-12T00:14:25;9.59;72.05
75170;SHT31;63749;49.186;9.222;2023-04-12T00:16:50;9.55;72.51
75170;SHT31;63749;49.186;9.222;2023-04-12T00:19:16;9.43;73.22
75170;SHT31;63749;49.186;9.222;2023-04-12T00:21:44;9.28;73.34
75170;SHT31;63749;49.186;9.222;2023-04-12T00:24:10;9.22;72.98
75170;SHT31;63749;49.186;9.222;2023-04-12T00:26:35;9.23;73.22
75170;SHT31;63749;49.186;9.222;2023-04-12T00:29:00;9.23;73.35
75170;SHT31;63749;49.186;9.222;2023-04-12T00:31:26;9.22;73.30
75170;SHT31;63749;49.186;9.222;2023-04-12T00:33:52;9.30;72.22
75170;SHT31;63749;49.186;9.222;2023-04-12T00:36:17;9.34;71.71
75170;SHT31;63749;49.186;9.222;2023-04-12T00:38:43;9.41;70.82
75170;SHT31;63749;49.186;9.222;2023-04-12T00:41:11;9.45;70.82
75170;SHT31;63749;49.186;9.222;2023-04-12T00:43:36;9.43;72.56
75170;SHT31;63749;49.186;9.222;2023-04-12T00:46:01;9.34;71.27
75170;SHT31;63749;49.186;9.222;2023-04-12T00:48:27;9.35;70.26
75170;SHT31;63749;49.186;9.222;2023-04-12T00:50:53;9.40;69.58
75170;SHT31;63749;49.186;9.222;2023-04-12T00:53:22;9.37;71.16
75170;SHT31;63749;49.186;9.222;2023-04-12T00:55:49;9.34;71.25
75170;SHT31;63749;49.186;9.222;2023-04-12T00:58:15;9.30;70.95
75170;SHT31;63749;49.186;9.222;2023-04-12T01:00:42;9.26;71.94
75170;SHT31;63749;49.186;9.222;2023-04-12T01:03:15;9.23;72.47
75170;SHT31;63749;49.186;9.222;2023-04-12T01:05:51;9.20;73.29
75170;SHT31;63749;49.186;9.222;2023-04-12T01:08:59;9.16;74.19
75170;SHT31;63749;49.186;9.222;2023-04-12T01:11:48;9.03;75.16
75170;SHT31;63749;49.186;9.222;2023-04-12T01:16:50;8.96;76.51
75170;SHT31;63749;49.186;9.222;2023-04-12T01:19:45;9.07;75.23
75170;SHT31;63749;49.186;9.222;2023-04-12T01:22:49;9.02;76.92
75170;SHT31;63749;49.186;9.222;2023-04-12T01:28:02;8.86;77.07
75170;SHT31;63749;49.186;9.222;2023-04-12T01:30:28;8.77;77.99
75170;SHT31;63749;49.186;9.222;2023-04-12T01:32:55;8.82;77.81
75170;SHT31;63749;49.186;9.222;2023-04-12T01:35:29;8.76;78.80
75170;SHT31;63749;49.186;9.222;2023-04-12T01:37:56;8.75;79.18
75170;SHT31;63749;49.186;9.222;2023-04-12T01:40:23;8.63;79.44
75170;SHT31;63749;49.186;9.222;2023-04-12T01:42:49;8.61;80.12
75170;SHT31;63749;49.186;9.222;2023-04-12T01:45:14;8.52;81.25
75170;SHT31;63749;49.186;9.222;2023-04-12T01:47:39;8.49;81.83
75170;SHT31;63749;49.186;9.222;2023-04-12T01:52:49;8.35;82.46
75170;SHT31;63749;49.186;9.222;2023-04-12T01:55:19;8.31;83.52
75170;SHT31;63749;49.186;9.222;2023-04-12T01:57:47;8.33;84.75
75170;SHT31;63749;49.186;9.222;2023-04-12T02:00:13;8.24;85.08
75170;SHT31;63749;49.186;9.222;2023-04-12T02:02:40;8.23;85.58
75170;SHT31;63749;49.186;9.222;2023-04-12T02:05:07;8.15;86.47
75170;SHT31;63749;49.186;9.222;2023-04-12T02:07:34;8.17;87.44
75170;SHT31;63749;49.186;9.222;2023-04-12T02:10:00;8.21;87.50
75170;SHT31;63749;49.186;9.222;2023-04-12T02:12:25;8.17;87.83
75170;SHT31;63749;49.186;9.222;2023-04-12T02:14:50;8.15;88.53
75170;SHT31;63749;49.186;9.222;2023-04-12T02:17:16;8.18;88.62
75170;SHT31;63749;49.186;9.222;2023-04-12T02:19:42;8.17;88.83
75170;SHT31;63749;49.186;9.222;2023-04-12T02:22:07;8.13;88.88
75170;SHT31;63749;49.186;9.222;2023-04-12T02:24:33;8.07;89.36
75170;SHT31;63749;49.186;9.222;2023-04-12T02:26:58;8.10;89.39
75170;SHT31;63749;49.186;9.222;2023-04-12T02:29:23;8.13;89.01
75170;SHT31;63749;49.186;9.222;2023-04-12T02:31:49;8.10;89.26
75170;SHT31;63749;49.186;9.222;2023-04-12T02:34:15;8.13;89.28
75170;SHT31;63749;49.186;9.222;2023-04-12T02:36:46;8.14;89.11
75170;SHT31;63749;49.186;9.222;2023-04-12T02:39:11;8.18;89.70
75170;SHT31;63749;49.186;9.222;2023-04-12T02:41:36;8.15;89.75
75170;SHT31;63749;49.186;9.222;2023-04-12T02:44:02;8.13;89.52
75170;SHT31;63749;49.186;9.222;2023-04-12T02:46:27;8.10;89.56
75170;SHT31;63749;49.186;9.222;2023-04-12T02:48:53;8.14;89.32
75170;SHT31;63749;49.186;9.222;2023-04-12T02:51:18;8.10;89.29
75170;SHT31;63749;49.186;9.222;2023-04-12T02:53:43;8.03;89.72
75170;SHT31;63749;49.186;9.222;2023-04-12T02:56:09;8.04;89.56
75170;SHT31;63749;49.186;9.222;2023-04-12T02:58:35;8.05;89.69
75170;SHT31;63749;49.186;9.222;2023-04-12T03:01:01;8.05;89.64
75170;SHT31;63749;49.186;9.222;2023-04-12T03:03:27;8.04;90.08
75170;SHT31;63749;49.186;9.222;2023-04-12T03:05:53;8.04;90.19
75170;SHT31;63749;49.186;9.222;2023-04-12T03:08:18;8.00;90.12
75170;SHT31;63749;49.186;9.222;2023-04-12T03:10:44;8.00;90.06
75170;SHT31;63749;49.186;9.222;2023-04-12T03:13:09;7.97;90.60
75170;SHT31;63749;49.186;9.222;2023-04-12T03:15:35;7.98;90.56
75170;SHT31;63749;49.186;9.222;2023-04-12T03:18:01;7.94;90.99
75170;SHT31;63749;49.186;9.222;2023-04-12T03:20:26;7.94;91.21
75170;SHT31;63749;49.186;9.222;2023-04-12T03:22:52;7.95;91.54
75170;SHT31;63749;49.186;9.222;2023-04-12T03:25:17;8.00;91.40
75170;SHT31;63749;49.186;9.222;2023-04-12T03:27:43;8.05;91.51
75170;SHT31;63749;49.186;9.222;2023-04-12T03:30:09;8.13;91.09
75170;SHT31;63749;49.186;9.222;2023-04-12T03:32:41;8.03;91.54
75170;SHT31;63749;49.186;9.222;2023-04-12T03:35:07;8.00;91.45
75170;SHT31;63749;49.186;9.222;2023-04-12T03:37:33;8.04;91.55
75170;SHT31;63749;49.186;9.222;2023-04-12T03:39:59;8.03;91.72
75170;SHT31;63749;49.186;9.222;2023-04-12T03:42:25;8.03;91.18
75170;SHT31;63749;49.186;9.222;2023-04-12T03:44:51;8.03;91.26
75170;SHT31;63749;49.186;9.222;2023-04-12T03:47:17;8.08;91.41
75170;SHT31;63749;49.186;9.222;2023-04-12T03:49:43;8.15;90.68
75170;SHT31;63749;49.186;9.222;2023-04-12T03:52:08;8.18;90.60
75170;SHT31;63749;49.186;9.222;2023-04-12T03:54:34;8.15;90.88
75170;SHT31;63749;49.186;9.222;2023-04-12T03:56:59;8.10;90.78
75170;SHT31;63749;49.186;9.222;2023-04-12T03:59:25;8.13;90.86
75170;SHT31;63749;49.186;9.222;2023-04-12T04:01:51;8.08;90.91
75170;SHT31;63749;49.186;9.222;2023-04-12T04:04:16;8.10;90.66
75170;SHT31;63749;49.186;9.222;2023-04-12T04:06:42;8.10;90.85
75170;SHT31;63749;49.186;9.222;2023-04-12T04:09:07;8.13;90.53
75170;SHT31;63749;49.186;9.222;2023-04-12T04:11:33;8.11;90.83
75170;SHT31;63749;49.186;9.222;2023-04-12T04:13:58;8.14;90.36
75170;SHT31;63749;49.186;9.222;2023-04-12T04:16:23;8.13;90.73
75170;SHT31;63749;49.186;9.222;2023-04-12T04:18:49;8.13;90.69
75170;SHT31;63749;49.186;9.222;2023-04-12T04:21:14;8.10;90.96
75170;SHT31;63749;49.186;9.222;2023-04-12T04:23:40;8.08;90.99
75170;SHT31;63749;49.186;9.222;2023-04-12T04:26:09;8.14;91.02
75170;SHT31;63749;49.186;9.222;2023-04-12T04:28:39;8.10;91.40
75170;SHT31;63749;49.186;9.222;2023-04-12T04:31:06;8.07;91.28
75170;SHT31;63749;49.186;9.222;2023-04-12T04:33:35;8.07;91.24
75170;SHT31;63749;49.186;9.222;2023-04-12T04:36:01;8.05;91.04
75170;SHT31;63749;49.186;9.222;2023-04-12T04:38:28;8.07;91.03
75170;SHT31;63749;49.186;9.222;2023-04-12T04:40:59;8.08;90.79
75170;SHT31;63749;49.186;9.222;2023-04-12T04:43:29;8.11;90.92
75170;SHT31;63749;49.186;9.222;2023-04-12T04:45:56;8.11;90.93
75170;SHT31;63749;49.186;9.222;2023-04-12T04:48:22;8.10;91.16
75170;SHT31;63749;49.186;9.222;2023-04-12T04:50:47;8.11;90.98
75170;SHT31;63749;49.186;9.222;2023-04-12T04:53:14;8.13;90.96
75170;SHT31;63749;49.186;9.222;2023-04-12T04:55:41;8.15;90.73
75170;SHT31;63749;49.186;9.222;2023-04-12T04:58:06;8.15;91.12
75170;SHT31;63749;49.186;9.222;2023-04-12T05:00:32;8.15;90.67
75170;SHT31;63749;49.186;9.222;2023-04-12T05:03:00;8.14;91.39
75170;SHT31;63749;49.186;9.222;2023-04-12T05:05:25;8.13;90.94
75170;SHT31;63749;49.186;9.222;2023-04-12T05:07:50;8.23;90.51
75170;SHT31;63749;49.186;9.222;2023-04-12T05:10:16;8.25;90.10
75170;SHT31;63749;49.186;9.222;2023-04-12T05:12:41;8.31;89.92
75170;SHT31;63749;49.186;9.222;2023-04-12T05:15:06;8.24;90.20
75170;SHT31;63749;49.186;9.222;2023-04-12T05:17:32;8.31;89.57
75170;SHT31;63749;49.186;9.222;2023-04-12T05:20:01;8.28;89.62
75170;SHT31;63749;49.186;9.222;2023-04-12T05:22:26;8.23;90.03
75170;SHT31;63749;49.186;9.222;2023-04-12T05:24:53;8.25;90.20
75170;SHT31;63749;49.186;9.222;2023-04-12T05:27:18;8.37;89.84
75170;SHT31;63749;49.186;9.222;2023-04-12T05:29:44;8.31;89.77
75170;SHT31;63749;49.186;9.222;2023-04-12T05:32:10;8.37;89.75
75170;SHT31;63749;49.186;9.222;2023-04-12T05:34:35;8.40;89.68
75170;SHT31;63749;49.186;9.222;2023-04-12T05:37:02;8.42;89.25
75170;SHT31;63749;49.186;9.222;2023-04-12T05:39:28;8.40;89.99
75170;SHT31;63749;49.186;9.222;2023-04-12T05:41:53;8.46;89.49
75170;SHT31;63749;49.186;9.222;2023-04-12T05:44:19;8.49;89.34
75170;SHT31;63749;49.186;9.222;2023-04-12T05:46:44;8.49;89.48
75170;SHT31;63749;49.186;9.222;2023-04-12T05:49:10;8.48;89.70
75170;SHT31;63749;49.186;9.222;2023-04-12T05:51:36;8.54;89.53
75170;SHT31;63749;49.186;9.222;2023-04-12T05:54:01;8.55;89.33
75170;SHT31;63749;49.186;9.222;2023-04-12T05:56:30;8.51;89.34
75170;SHT31;63749;49.186;9.222;2023-04-12T05:58:55;8.54;88.97
75170;SHT31;63749;49.186;9.222;2023-04-12T06:01:21;8.51;89.32
75170;SHT31;63749;49.186;9.222;2023-04-12T06:03:46;8.59;88.84
75170;SHT31;63749;49.186;9.222;2023-04-12T06:06:12;8.63;88.70
75170;SHT31;63749;49.186;9.222;2023-04-12T06:08:37;8.61;89.30
75170;SHT31;63749;49.186;9.222;2023-04-12T06:11:04;8.76;88.55
75170;SHT31;63749;49.186;9.222;2023-04-12T06:13:29;8.71;88.37
75170;SHT31;63749;49.186;9.222;2023-04-12T06:15:55;8.68;88.81
75170;SHT31;63749;49.186;9.222;2023-04-12T06:18:20;8.82;88.44
75170;SHT31;63749;49.186;9.222;2023-04-12T06:20:46;8.84;88.68
75170;SHT31;63749;49.186;9.222;2023-04-12T06:23:11;8.94;88.18
75170;SHT31;63749;49.186;9.222;2023-04-12T06:25:36;8.89;88.75
75170;SHT31;63749;49.186;9.222;2023-04-12T06:28:02;8.87;89.02
75170;SHT31;63749;49.186;9.222;2023-04-12T06:30:27;8.93;88.23
75170;SHT31;63749;49.186;9.222;2023-04-12T06:32:53;9.06;87.79
75170;SHT31;63749;49.186;9.222;2023-04-12T06:35:18;9.14;87.71
75170;SHT31;63749;49.186;9.222;2023-04-12T06:37:45;9.06;87.91
75170;SHT31;63749;49.186;9.222;2023-04-12T06:40:11;9.16;88.27
75170;SHT31;63749;49.186;9.222;2023-04-12T06:42:37;9.13;88.08
75170;SHT31;63749;49.186;9.222;2023-04-12T06:45:02;9.17;87.33
75170;SHT31;63749;49.186;9.222;2023-04-12T06:47:28;9.14;88.18
75170;SHT31;63749;49.186;9.222;2023-04-12T06:49:54;9.12;88.25
75170;SHT31;63749;49.186;9.222;2023-04-12T06:52:23;9.22;87.63
75170;SHT31;63749;49.186;9.222;2023-04-12T06:54:49;9.31;87.61
75170;SHT31;63749;49.186;9.222;2023-04-12T06:57:15;9.24;87.62
75170;SHT31;63749;49.186;9.222;2023-04-12T06:59:40;9.24;88.05
75170;SHT31;63749;49.186;9.222;2023-04-12T07:02:06;9.26;87.57
75170;SHT31;63749;49.186;9.222;2023-04-12T07:04:32;9.35;87.22
75170;SHT31;63749;49.186;9.222;2023-04-12T07:06:57;9.34;87.77
75170;SHT31;63749;49.186;9.222;2023-04-12T07:09:22;9.31;88.05
75170;SHT31;63749;49.186;9.222;2023-04-12T07:11:48;9.33;88.23
75170;SHT31;63749;49.186;9.222;2023-04-12T07:14:13;9.40;87.67
75170;SHT31;63749;49.186;9.222;2023-04-12T07:16:39;9.45;87.91
75170;SHT31;63749;49.186;9.222;2023-04-12T07:19:04;9.58;87.53
75170;SHT31;63749;49.186;9.222;2023-04-12T07:21:29;9.59;87.55
75170;SHT31;63749;49.186;9.222;2023-04-12T07:23:55;9.62;87.59
75170;SHT31;63749;49.186;9.222;2023-04-12T07:26:21;9.58;87.25
75170;SHT31;63749;49.186;9.222;2023-04-12T07:28:46;9.70;87.02
75170;SHT31;63749;49.186;9.222;2023-04-12T07:31:11;9.68;86.80
75170;SHT31;63749;49.186;9.222;2023-04-12T07:33:37;9.74;87.68
75170;SHT31;63749;49.186;9.222;2023-04-12T07:36:03;9.75;86.52
75170;SHT31;63749;49.186;9.222;2023-04-12T07:38:28;9.91;85.44
75170;SHT31;63749;49.186;9.222;2023-04-12T07:40:55;9.95;85.24
75170;SHT31;63749;49.186;9.222;2023-04-12T07:43:21;10.01;86.03
75170;SHT31;63749;49.186;9.222;2023-04-12T07:45:47;10.02;86.34
75170;SHT31;63749;49.186;9.222;2023-04-12T07:48:13;9.95;87.11
75170;SHT31;63749;49.186;9.222;2023-04-12T07:50:38;10.01;86.12
75170;SHT31;63749;49.186;9.222;2023-04-12T07:53:21;10.05;87.74
75170;SHT31;63749;49.186;9.222;2023-04-12T07:55:47;10.09;86.31
75170;SHT31;63749;49.186;9.222;2023-04-12T07:58:13;10.08;86.29
75170;SHT31;63749;49.186;9.222;2023-04-12T08:00:39;10.12;86.21
75170;SHT31;63749;49.186;9.222;2023-04-12T08:03:04;10.29;85.87
75170;SHT31;63749;49.186;9.222;2023-04-12T08:05:30;10.39;85.65
75170;SHT31;63749;49.186;9.222;2023-04-12T08:07:55;10.53;85.16
75170;SHT31;63749;49.186;9.222;2023-04-12T08:10:20;10.60;84.82
75170;SHT31;63749;49.186;9.222;2023-04-12T08:12:46;10.63;83.52
75170;SHT31;63749;49.186;9.222;2023-04-12T08:15:12;10.53;84.36
75170;SHT31;63749;49.186;9.222;2023-04-12T08:17:37;10.59;83.99
75170;SHT31;63749;49.186;9.222;2023-04-12T08:20:03;10.61;84.74
75170;SHT31;63749;49.186;9.222;2023-04-12T08:22:29;10.57;84.72
75170;SHT31;63749;49.186;9.222;2023-04-12T08:24:54;10.63;84.87
75170;SHT31;63749;49.186;9.222;2023-04-12T08:27:20;10.67;84.15
75170;SHT31;63749;49.186;9.222;2023-04-12T08:29:45;10.71;83.97
75170;SHT31;63749;49.186;9.222;2023-04-12T08:32:10;10.92;83.28
75170;SHT31;63749;49.186;9.222;2023-04-12T08:34:37;10.81;83.61
75170;SHT31;63749;49.186;9.222;2023-04-12T08:37:02;10.88;84.10
75170;SHT31;63749;49.186;9.222;2023-04-12T08:39:29;11.02;83.61
75170;SHT31;63749;49.186;9.222;2023-04-12T08:41:55;11.04;83.47
75170;SHT31;63749;49.186;9.222;2023-04-12T08:44:36;11.04;84.36
75170;SHT31;63749;49.186;9.222;2023-04-12T08:47:03;11.09;84.88
75170;SHT31;63749;49.186;9.222;2023-04-12T08:49:30;11.08;85.15
75170;SHT31;63749;49.186;9.222;2023-04-12T08:51:59;11.22;84.62
75170;SHT31;63749;49.186;9.222;2023-04-12T08:54:25;11.33;83.71
75170;SHT31;63749;49.186;9.222;2023-04-12T08:56:52;11.23;83.91
75170;SHT31;63749;49.186;9.222;2023-04-12T08:59:18;11.38;83.22
75170;SHT31;63749;49.186;9.222;2023-04-12T09:01:44;11.44;83.12
75170;SHT31;63749;49.186;9.222;2023-04-12T09:04:10;11.66;83.06
75170;SHT31;63749;49.186;9.222;2023-04-12T09:06:35;11.94;81.02
75170;SHT31;63749;49.186;9.222;2023-04-12T09:09:01;12.04;81.45
75170;SHT31;63749;49.186;9.222;2023-04-12T09:11:30;12.02;81.11
75170;SHT31;63749;49.186;9.222;2023-04-12T09:13:57;12.01;80.75
75170;SHT31;63749;49.186;9.222;2023-04-12T09:16:38;12.45;79.47
75170;SHT31;63749;49.186;9.222;2023-04-12T09:19:04;12.41;79.38
75170;SHT31;63749;49.186;9.222;2023-04-12T09:21:34;12.17;80.74
75170;SHT31;63749;49.186;9.222;2023-04-12T09:24:08;12.18;81.96
75170;SHT31;63749;49.186;9.222;2023-04-12T09:26:34;12.35;81.76
75170;SHT31;63749;49.186;9.222;2023-04-12T09:29:00;12.21;82.30
75170;SHT31;63749;49.186;9.222;2023-04-12T09:31:25;12.13;82.33
75170;SHT31;63749;49.186;9.222;2023-04-12T09:34:08;11.90;81.92
75170;SHT31;63749;49.186;9.222;2023-04-12T09:36:40;11.91;82.82
75170;SHT31;63749;49.186;9.222;2023-04-12T09:39:06;11.87;82.57
75170;SHT31;63749;49.186;9.222;2023-04-12T09:41:32;11.86;82.24
75170;SHT31;63749;49.186;9.222;2023-04-12T09:43:58;12.11;82.71
75170;SHT31;63749;49.186;9.222;2023-04-12T09:46:23;12.10;82.40
75170;SHT31;63749;49.186;9.222;2023-04-12T09:48:51;12.08;81.85
75170;SHT31;63749;49.186;9.222;2023-04-12T09:51:27;11.95;82.95
75170;SHT31;63749;49.186;9.222;2023-04-12T09:54:01;11.98;83.08
75170;SHT31;63749;49.186;9.222;2023-04-12T09:56:31;12.07;83.20
75170;SHT31;63749;49.186;9.222;2023-04-12T09:59:05;12.11;82.85
75170;SHT31;63749;49.186;9.222;2023-04-12T10:01:37;12.38;81.70
75170;SHT31;63749;49.186;9.222;2023-04-12T10:04:05;12.44;81.72
75170;SHT31;63749;49.186;9.222;2023-04-12T10:06:32;12.45;82.16
75170;SHT31;63749;49.186;9.222;2023-04-12T10:08:57;12.75;81.26
75170;SHT31;63749;49.186;9.222;2023-04-12T10:11:25;12.89;81.24
75170;SHT31;63749;49.186;9.222;2023-04-12T10:13:52;13.21;80.96
75170;SHT31;63749;49.186;9.222;2023-04-12T10:16:18;13.00;81.27
75170;SHT31;63749;49.186;9.222;2023-04-12T10:18:45;12.83;80.74
75170;SHT31;63749;49.186;9.222;2023-04-12T10:21:12;13.34;79.75
75170;SHT31;63749;49.186;9.222;2023-04-12T10:23:38;13.37;79.46
75170;SHT31;63749;49.186;9.222;2023-04-12T10:26:04;13.04;81.14
75170;SHT31;63749;49.186;9.222;2023-04-12T10:28:29;13.10;80.44
75170;SHT31;63749;49.186;9.222;2023-04-12T10:30:58;13.47;80.29
75170;SHT31;63749;49.186;9.222;2023-04-12T10:33:28;13.59;79.99
75170;SHT31;63749;49.186;9.222;2023-04-12T10:35:56;13.61;80.47
75170;SHT31;63749;49.186;9.222;2023-04-12T10:38:24;13.65;81.52
75170;SHT31;63749;49.186;9.222;2023-04-12T10:41:18;13.69;81.61
75170;SHT31;63749;49.186;9.222;2023-04-12T10:43:47;13.45;81.75
75170;SHT31;63749;49.186;9.222;2023-04-12T10:49:11;13.55;82.36
75170;SHT31;63749;49.186;9.222;2023-04-12T10:51:38;13.83;80.58
75170;SHT31;63749;49.186;9.222;2023-04-12T10:58:58;13.98;80.55
75170;SHT31;63749;49.186;9.222;2023-04-12T11:01:24;13.94;80.97
75170;SHT31;63749;49.186;9.222;2023-04-12T11:09:22;14.15;79.01
75170;SHT31;63749;49.186;9.222;2023-04-12T11:11:50;14.25;78.58
75170;SHT31;63749;49.186;9.222;2023-04-12T11:14:16;14.37;77.55
75170;SHT31;63749;49.186;9.222;2023-04-12T11:19:33;14.37;78.39
75170;SHT31;63749;49.186;9.222;2023-04-12T11:22:09;14.37;78.61
75170;SHT31;63749;49.186;9.222;2023-04-12T11:24:38;14.33;77.39
75170;SHT31;63749;49.186;9.222;2023-04-12T11:27:04;14.53;77.37
75170;SHT31;63749;49.186;9.222;2023-04-12T11:29:30;14.73;76.32
75170;SHT31;63749;49.186;9.222;2023-04-12T11:31:57;14.50;76.73
75170;SHT31;63749;49.186;9.222;2023-04-12T11:34:22;14.51;77.21
75170;SHT31;63749;49.186;9.222;2023-04-12T11:36:51;14.36;76.65
75170;SHT31;63749;49.186;9.222;2023-04-12T11:39:18;14.44;75.99
75170;SHT31;63749;49.186;9.222;2023-04-12T11:41:45;14.59;75.07
75170;SHT31;63749;49.186;9.222;2023-04-12T11:44:12;14.27;77.29
75170;SHT31;63749;49.186;9.222;2023-04-12T11:46:38;14.22;77.67
75170;SHT31;63749;49.186;9.222;2023-04-12T11:49:03;14.22;77.37
75170;SHT31;63749;49.186;9.222;2023-04-12T11:51:30;14.12;77.87
75170;SHT31;63749;49.186;9.222;2023-04-12T11:53:57;14.16;76.70
75170;SHT31;63749;49.186;9.222;2023-04-12T11:56:23;14.50;74.92
75170;SHT31;63749;49.186;9.222;2023-04-12T11:58:49;14.47;75.76
75170;SHT31;63749;49.186;9.222;2023-04-12T12:01:14;14.43;75.02
75170;SHT31;63749;49.186;9.222;2023-04-12T12:03:41;14.38;74.93
75170;SHT31;63749;49.186;9.222;2023-04-12T12:06:07;14.20;75.21
75170;SHT31;63749;49.186;9.222;2023-04-12T12:08:33;14.22;76.19
75170;SHT31;63749;49.186;9.222;2023-04-12T12:10:59;14.33;75.39
75170;SHT31;63749;49.186;9.222;2023-04-12T12:13:24;14.34;75.30
75170;SHT31;63749;49.186;9.222;2023-04-12T12:15:53;14.40;74.75
75170;SHT31;63749;49.186;9.222;2023-04-12T12:18:18;14.38;75.26
75170;SHT31;63749;49.186;9.222;2023-04-12T12:20:49;14.48;75.16
75170;SHT31;63749;49.186;9.222;2023-04-12T12:23:31;14.37;74.58
75170;SHT31;63749;49.186;9.222;2023-04-12T12:25:58;14.41;75.40
75170;SHT31;63749;49.186;9.222;2023-04-12T12:28:24;14.38;75.42
75170;SHT31;63749;49.186;9.222;2023-04-12T12:30:58;14.41;74.53
75170;SHT31;63749;49.186;9.222;2023-04-12T12:33:24;14.50;73.96
75170;SHT31;63749;49.186;9.222;2023-04-12T12:35:56;14.47;74.24
75170;SHT31;63749;49.186;9.222;2023-04-12T12:38:21;14.71;72.26
75170;SHT31;63749;49.186;9.222;2023-04-12T12:40:48;14.57;73.72
75170;SHT31;63749;49.186;9.222;2023-04-12T12:43:20;14.60;72.82
75170;SHT31;63749;49.186;9.222;2023-04-12T12:45:45;14.60;73.49
75170;SHT31;63749;49.186;9.222;2023-04-12T12:48:11;14.73;72.26
75170;SHT31;63749;49.186;9.222;2023-04-12T12:50:37;14.70;71.99
75170;SHT31;63749;49.186;9.222;2023-04-12T12:53:03;14.65;71.72
75170;SHT31;63749;49.186;9.222;2023-04-12T12:55:30;14.84;70.19
75170;SHT31;63749;49.186;9.222;2023-04-12T12:57:57;14.77;71.14
75170;SHT31;63749;49.186;9.222;2023-04-12T13:00:24;14.81;72.25
75170;SHT31;63749;49.186;9.222;2023-04-12T13:02:50;14.67;72.54
75170;SHT31;63749;49.186;9.222;2023-04-12T13:05:16;14.70;71.54
75170;SHT31;63749;49.186;9.222;2023-04-12T13:07:41;14.80;71.29
75170;SHT31;63749;49.186;9.222;2023-04-12T13:10:08;14.87;71.99
75170;SHT31;63749;49.186;9.222;2023-04-12T13:12:34;15.12;70.53
75170;SHT31;63749;49.186;9.222;2023-04-12T13:14:59;15.08;70.70
75170;SHT31;63749;49.186;9.222;2023-04-12T13:17:26;15.14;70.72
75170;SHT31;63749;49.186;9.222;2023-04-12T13:19:51;15.26;70.96
75170;SHT31;63749;49.186;9.222;2023-04-12T13:22:17;15.12;70.60
75170;SHT31;63749;49.186;9.222;2023-04-12T13:24:42;15.50;68.56
75170;SHT31;63749;49.186;9.222;2023-04-12T13:27:08;15.86;68.65
75170;SHT31;63749;49.186;9.222;2023-04-12T13:29:34;16.10;66.16
75170;SHT31;63749;49.186;9.222;2023-04-12T13:31:59;15.77;65.96
75170;SHT31;63749;49.186;9.222;2023-04-12T13:34:25;15.63;67.29
75170;SHT31;63749;49.186;9.222;2023-04-12T13:36:50;15.77;66.69
75170;SHT31;63749;49.186;9.222;2023-04-12T13:39:16;15.59;66.83
75170;SHT31;63749;49.186;9.222;2023-04-12T13:41:42;15.52;67.08
75170;SHT31;63749;49.186;9.222;2023-04-12T13:44:07;15.36;68.99
75170;SHT31;63749;49.186;9.222;2023-04-12T13:46:32;15.25;69.67
75170;SHT31;63749;49.186;9.222;2023-04-12T13:48:58;15.16;70.57
75170;SHT31;63749;49.186;9.222;2023-04-12T13:51:23;15.16;69.95
75170;SHT31;63749;49.186;9.222;2023-04-12T13:53:51;15.06;71.05
75170;SHT31;63749;49.186;9.222;2023-04-12T13:56:16;15.14;70.26
75170;SHT31;63749;49.186;9.222;2023-04-12T13:58:42;15.21;70.58
75170;SHT31;63749;49.186;9.222;2023-04-12T14:01:07;15.56;69.53
75170;SHT31;63749;49.186;9.222;2023-04-12T14:03:33;15.94;67.82
75170;SHT31;63749;49.186;9.222;2023-04-12T14:05:59;16.59;67.39
75170;SHT31;63749;49.186;9.222;2023-04-12T14:08:28;17.34;64.74
75170;SHT31;63749;49.186;9.222;2023-04-12T14:10:53;17.69;63.38
75170;SHT31;63749;49.186;9.222;2023-04-12T14:13:20;17.79;63.09
75170;SHT31;63749;49.186;9.222;2023-04-12T14:15:46;17.16;64.84
75170;SHT31;63749;49.186;9.222;2023-04-12T14:18:11;16.61;65.99
75170;SHT31;63749;49.186;9.222;2023-04-12T14:20:37;16.71;64.75
75170;SHT31;63749;49.186;9.222;2023-04-12T14:23:02;16.73;65.00
75170;SHT31;63749;49.186;9.222;2023-04-12T14:25:28;16.48;65.10
75170;SHT31;63749;49.186;9.222;2023-04-12T14:27:53;16.18;66.42
75170;SHT31;63749;49.186;9.222;2023-04-12T14:30:18;15.98;66.73
75170;SHT31;63749;49.186;9.222;2023-04-12T14:32:44;15.79;67.30
75170;SHT31;63749;49.186;9.222;2023-04-12T14:35:09;15.80;66.99
75170;SHT31;63749;49.186;9.222;2023-04-12T14:37:35;15.56;67.70
75170;SHT31;63749;49.186;9.222;2023-04-12T14:40:00;15.40;68.13
75170;SHT31;63749;49.186;9.222;2023-04-12T14:42:25;15.46;67.39
75170;SHT31;63749;49.186;9.222;2023-04-12T14:44:51;15.46;68.42
75170;SHT31;63749;49.186;9.222;2023-04-12T14:47:16;15.50;68.70
75170;SHT31;63749;49.186;9.222;2023-04-12T14:49:41;15.19;72.39
75170;SHT31;63749;49.186;9.222;2023-04-12T14:52:07;14.91;72.19
75170;SHT31;63749;49.186;9.222;2023-04-12T14:54:32;14.70;74.75
75170;SHT31;63749;49.186;9.222;2023-04-12T14:56:58;14.53;74.82
75170;SHT31;63749;49.186;9.222;2023-04-12T14:59:24;14.37;76.51
75170;SHT31;63749;49.186;9.222;2023-04-12T15:01:51;13.92;80.60
75170;SHT31;63749;49.186;9.222;2023-04-12T15:04:17;13.37;85.33
75170;SHT31;63749;49.186;9.222;2023-04-12T15:06:42;12.85;86.33
75170;SHT31;63749;49.186;9.222;2023-04-12T15:09:09;12.29;88.89
75170;SHT31;63749;49.186;9.222;2023-04-12T15:11:35;11.95;90.96
75170;SHT31;63749;49.186;9.222;2023-04-12T15:14:02;11.49;89.48
75170;SHT31;63749;49.186;9.222;2023-04-12T15:16:29;10.87;90.08
75170;SHT31;63749;49.186;9.222;2023-04-12T15:18:54;10.63;91.29
75170;SHT31;63749;49.186;9.222;2023-04-12T15:21:19;10.43;91.88
75170;SHT31;63749;49.186;9.222;2023-04-12T15:23:45;10.34;92.01
75170;SHT31;63749;49.186;9.222;2023-04-12T15:26:11;10.29;92.40
75170;SHT31;63749;49.186;9.222;2023-04-12T15:28:38;10.20;92.96
75170;SHT31;63749;49.186;9.222;2023-04-12T15:31:05;10.22;93.21
75170;SHT31;63749;49.186;9.222;2023-04-12T15:33:30;10.33;93.02
75170;SHT31;63749;49.186;9.222;2023-04-12T15:36:00;10.49;91.96
75170;SHT31;63749;49.186;9.222;2023-04-12T15:38:25;10.60;92.04
75170;SHT31;63749;49.186;9.222;2023-04-12T15:41:00;10.71;92.43
75170;SHT31;63749;49.186;9.222;2023-04-12T15:43:26;10.71;90.67
75170;SHT31;63749;49.186;9.222;2023-04-12T15:45:52;10.88;90.24
75170;SHT31;63749;49.186;9.222;2023-04-12T15:48:23;11.21;90.03
75170;SHT31;63749;49.186;9.222;2023-04-12T15:50:49;13.81;81.95
75170;SHT31;63749;49.186;9.222;2023-04-12T15:53:17;13.30;82.75
75170;SHT31;63749;49.186;9.222;2023-04-12T15:55:44;12.66;84.57
75170;SHT31;63749;49.186;9.222;2023-04-12T15:58:10;12.50;86.57
75170;SHT31;63749;49.186;9.222;2023-04-12T16:00:35;12.20;85.10